sensor_id;sensor_type;location;lat;lon;timestamp;temperature;humidity
65584;DHT22;73032;43.592;1.458;2024-03-22T00:01:52;17.15;76.63
65584;DHT22;73032;43.592;1.458;2024-03-22T00:04:18;17.08;76.88
65584;DHT22;73032;43.592;1.458;2024-03-22T00:06:46;17.06;76.60
65584;DHT22;73032;43.592;1.458;2024-03-22T00:09:12;17.03;76.87
65584;DHT22;73032;43.592;1.458;2024-03-22T00:11:40;16.98;77.18
65584;DHT22;73032;43.592;1.458;2024-03-22T00:14:06;17.00;76.62
65584;DHT22;73032;43.592;1.458;2024-03-22T00:16:32;16.97;76.49
65584;DHT22;73032;43.592;1.458;2024-03-22T00:18:58;16.98;77.29
65584;DHT22;73032;43.592;1.458;2024-03-22T00:21:24;16.91;77.19
65584;DHT22;73032;43.592;1.458;2024-03-22T00:23:50;16.91;77.29
65584;DHT22;73032;43.592;1.458;2024-03-22T00:26:16;16.90;76.38
65584;DHT22;73032;43.592;1.458;2024-03-22T00:28:42;16.90;77.21
65584;DHT22;73032;43.592;1.458;2024-03-22T00:31:08;16.88;77.38
65584;DHT22;73032;43.592;1.458;2024-03-22T00:33:34;16.87;76.57
65584;DHT22;73032;43.592;1.458;2024-03-22T00:36:00;16.87;77.40
65584;DHT22;73032;43.592;1.458;2024-03-22T00:38:26;16.87;77.36
65584;DHT22;73032;43.592;1.458;2024-03-22T00:40:51;16.83;77.53
65584;DHT22;73032;43.592;1.458;2024-03-22T00:43:17;16.81;77.56
65584;DHT22;73032;43.592;1.458;2024-03-22T00:45:43;16.81;77.72
65584;DHT22;73032;43.592;1.458;2024-03-22T00:48:09;16.81;77.50
65584;DHT22;73032;43.592;1.458;2024-03-22T00:50:35;16.74;77.60
65584;DHT22;73032;43.592;1.458;2024-03-22T00:53:01;16.74;77.66
65584;DHT22;73032;43.592;1.458;2024-03-22T00:55:28;16.71;77.97
65584;DHT22;73032;43.592;1.458;2024-03-22T00:57:54;16.70;77.96
65584;DHT22;73032;43.592;1.458;2024-03-22T01:00:20;16.68;77.95
65584;DHT22;73032;43.592;1.458;2024-03-22T01:02:46;16.64;77.74
65584;DHT22;73032;43.592;1.458;2024-03-22T01:05:12;16.63;78.13
65584;DHT22;73032;43.592;1.458;2024-03-22T01:07:37;16.61;77.90
65584;DHT22;73032;43.592;1.458;2024-03-22T01:10:04;16.59;77.92
65584;DHT22;73032;43.592;1.458;2024-03-22T01:12:30;16.56;77.66
65584;DHT22;73032;43.592;1.458;2024-03-22T01:14:56;16.54;78.07
65584;DHT22;73032;43.592;1.458;2024-03-22T01:17:22;16.53;78.37
65584;DHT22;73032;43.592;1.458;2024-03-22T01:19:48;16.50;78.31
65584;DHT22;73032;43.592;1.458;2024-03-22T01:22:14;16.46;78.57
65584;DHT22;73032;43.592;1.458;2024-03-22T01:24:40;16.42;78.60
65584;DHT22;73032;43.592;1.458;2024-03-22T01:27:05;16.42;78.63
65584;DHT22;73032;43.592;1.458;2024-03-22T01:29:31;16.39;78.22
65584;DHT22;73032;43.592;1.458;2024-03-22T01:32:00;16.37;78.17
65584;DHT22;73032;43.592;1.458;2024-03-22T01:34:25;16.37;77.87
65584;DHT22;73032;43.592;1.458;2024-03-22T01:36:51;16.36;78.31
65584;DHT22;73032;43.592;1.458;2024-03-22T01:39:18;16.37;78.88
65584;DHT22;73032;43.592;1.458;2024-03-22T01:41:50;16.36;78.66
65584;DHT22;73032;43.592;1.458;2024-03-22T01:44:16;16.33;78.84
65584;DHT22;73032;43.592;1.458;2024-03-22T01:46:43;16.37;79.06
65584;DHT22;73032;43.592;1.458;2024-03-22T01:49:12;16.33;78.72
65584;DHT22;73032;43.592;1.458;2024-03-22T01:51:40;16.34;78.29
65584;DHT22;73032;43.592;1.458;2024-03-22T01:54:08;16.32;79.05
65584;DHT22;73032;43.592;1.458;2024-03-22T01:56:36;16.24;78.78
65584;DHT22;73032;43.592;1.458;2024-03-22T01:59:03;16.23;78.65
65584;DHT22;73032;43.592;1.458;2024-03-22T02:01:29;16.19;78.35
65584;DHT22;73032;43.592;1.458;2024-03-22T02:03:55;16.17;78.91
65584;DHT22;73032;43.592;1.458;2024-03-22T02:06:21;16.14;78.53
65584;DHT22;73032;43.592;1.458;2024-03-22T02:08:47;16.13;78.35
65584;DHT22;73032;43.592;1.458;2024-03-22T02:11:12;16.10;78.86
65584;DHT22;73032;43.592;1.458;2024-03-22T02:13:39;16.10;79.11
65584;DHT22;73032;43.592;1.458;2024-03-22T02:16:05;16.10;78.63
65584;DHT22;73032;43.592;1.458;2024-03-22T02:18:31;16.08;78.20
65584;DHT22;73032;43.592;1.458;2024-03-22T02:20:57;16.08;78.53
65584;DHT22;73032;43.592;1.458;2024-03-22T02:23:34;16.05;78.22
65584;DHT22;73032;43.592;1.458;2024-03-22T02:26:00;16.05;78.71
65584;DHT22;73032;43.592;1.458;2024-03-22T02:28:26;16.03;78.79
65584;DHT22;73032;43.592;1.458;2024-03-22T02:30:52;16.03;78.40
65584;DHT22;73032;43.592;1.458;2024-03-22T02:33:18;16.03;78.75
65584;DHT22;73032;43.592;1.458;2024-03-22T02:35:46;16.06;78.80
65584;DHT22;73032;43.592;1.458;2024-03-22T02:38:12;16.06;78.66
65584;DHT22;73032;43.592;1.458;2024-03-22T02:40:37;16.05;78.40
65584;DHT22;73032;43.592;1.458;2024-03-22T02:43:04;16.06;78.48
65584;DHT22;73032;43.592;1.458;2024-03-22T02:45:30;16.06;78.59
65584;DHT22;73032;43.592;1.458;2024-03-22T02:47:56;16.03;78.67
65584;DHT22;73032;43.592;1.458;2024-03-22T02:50:23;16.03;79.04
65584;DHT22;73032;43.592;1.458;2024-03-22T02:52:49;16.02;79.12
65584;DHT22;73032;43.592;1.458;2024-03-22T02:55:15;15.96;79.04
65584;DHT22;73032;43.592;1.458;2024-03-22T02:57:40;15.98;79.48
65584;DHT22;73032;43.592;1.458;2024-03-22T03:00:06;15.93;79.82
65584;DHT22;73032;43.592;1.458;2024-03-22T03:02:32;15.92;79.30
65584;DHT22;73032;43.592;1.458;2024-03-22T03:04:58;15.88;79.43
65584;DHT22;73032;43.592;1.458;2024-03-22T03:07:24;15.88;79.77
65584;DHT22;73032;43.592;1.458;2024-03-22T03:09:50;15.83;79.71
65584;DHT22;73032;43.592;1.458;2024-03-22T03:12:16;15.81;79.80
65584;DHT22;73032;43.592;1.458;2024-03-22T03:14:41;15.75;79.65
65584;DHT22;73032;43.592;1.458;2024-03-22T03:17:07;15.68;79.65
65584;DHT22;73032;43.592;1.458;2024-03-22T03:19:34;15.63;79.85
65584;DHT22;73032;43.592;1.458;2024-03-22T03:21:59;15.55;79.54
65584;DHT22;73032;43.592;1.458;2024-03-22T03:24:25;15.47;80.13
65584;DHT22;73032;43.592;1.458;2024-03-22T03:26:51;15.45;79.78
65584;DHT22;73032;43.592;1.458;2024-03-22T03:29:17;15.42;80.26
65584;DHT22;73032;43.592;1.458;2024-03-22T03:31:42;15.38;80.28
65584;DHT22;73032;43.592;1.458;2024-03-22T03:34:08;15.38;80.36
65584;DHT22;73032;43.592;1.458;2024-03-22T03:36:34;15.37;80.09
65584;DHT22;73032;43.592;1.458;2024-03-22T03:38:59;15.32;79.46
65584;DHT22;73032;43.592;1.458;2024-03-22T03:41:25;15.32;80.00
65584;DHT22;73032;43.592;1.458;2024-03-22T03:43:51;15.32;80.10
65584;DHT22;73032;43.592;1.458;2024-03-22T03:46:16;15.30;79.96
65584;DHT22;73032;43.592;1.458;2024-03-22T03:48:42;15.27;79.63
65584;DHT22;73032;43.592;1.458;2024-03-22T03:51:08;15.24;79.85
65584;DHT22;73032;43.592;1.458;2024-03-22T03:53:34;15.21;79.64
65584;DHT22;73032;43.592;1.458;2024-03-22T03:55:59;15.21;80.26
65584;DHT22;73032;43.592;1.458;2024-03-22T03:58:25;15.24;80.04
65584;DHT22;73032;43.592;1.458;2024-03-22T04:00:51;15.18;79.70
65584;DHT22;73032;43.592;1.458;2024-03-22T04:03:16;15.20;80.46
65584;DHT22;73032;43.592;1.458;2024-03-22T04:05:42;15.20;80.07
65584;DHT22;73032;43.592;1.458;2024-03-22T04:08:08;15.18;80.26
65584;DHT22;73032;43.592;1.458;2024-03-22T04:10:33;15.18;79.72
65584;DHT22;73032;43.592;1.458;2024-03-22T04:13:00;15.17;80.24
65584;DHT22;73032;43.592;1.458;2024-03-22T04:15:25;15.17;79.83
65584;DHT22;73032;43.592;1.458;2024-03-22T04:17:51;15.18;80.03
65584;DHT22;73032;43.592;1.458;2024-03-22T04:20:17;15.15;79.99
65584;DHT22;73032;43.592;1.458;2024-03-22T04:22:43;15.17;79.72
65584;DHT22;73032;43.592;1.458;2024-03-22T04:25:09;15.20;79.56
65584;DHT22;73032;43.592;1.458;2024-03-22T04:27:38;15.18;79.68
65584;DHT22;73032;43.592;1.458;2024-03-22T04:30:04;15.18;79.89
65584;DHT22;73032;43.592;1.458;2024-03-22T04:32:29;15.18;79.76
65584;DHT22;73032;43.592;1.458;2024-03-22T04:34:55;15.18;79.81
65584;DHT22;73032;43.592;1.458;2024-03-22T04:37:21;15.17;79.87
65584;DHT22;73032;43.592;1.458;2024-03-22T04:39:47;15.18;80.32
65584;DHT22;73032;43.592;1.458;2024-03-22T04:42:13;15.15;80.44
65584;DHT22;73032;43.592;1.458;2024-03-22T04:44:38;15.11;79.74
65584;DHT22;73032;43.592;1.458;2024-03-22T04:47:04;15.05;79.76
65584;DHT22;73032;43.592;1.458;2024-03-22T04:49:30;15.05;79.89
65584;DHT22;73032;43.592;1.458;2024-03-22T04:51:56;15.04;80.38
65584;DHT22;73032;43.592;1.458;2024-03-22T04:54:22;15.03;80.30
65584;DHT22;73032;43.592;1.458;2024-03-22T04:56:49;15.03;80.21
65584;DHT22;73032;43.592;1.458;2024-03-22T04:59:15;15.01;80.01
65584;DHT22;73032;43.592;1.458;2024-03-22T05:01:42;14.97;80.03
65584;DHT22;73032;43.592;1.458;2024-03-22T05:04:09;14.93;79.75
65584;DHT22;73032;43.592;1.458;2024-03-22T05:06:35;14.86;79.82
65584;DHT22;73032;43.592;1.458;2024-03-22T05:09:01;14.80;79.63
65584;DHT22;73032;43.592;1.458;2024-03-22T05:11:26;14.69;79.38
65584;DHT22;73032;43.592;1.458;2024-03-22T05:13:52;14.72;79.57
65584;DHT22;73032;43.592;1.458;2024-03-22T05:16:18;14.73;79.65
65584;DHT22;73032;43.592;1.458;2024-03-22T05:18:43;14.66;79.39
65584;DHT22;73032;43.592;1.458;2024-03-22T05:21:09;14.66;79.14
65584;DHT22;73032;43.592;1.458;2024-03-22T05:23:35;14.62;79.07
65584;DHT22;73032;43.592;1.458;2024-03-22T05:26:00;14.60;78.97
65584;DHT22;73032;43.592;1.458;2024-03-22T05:28:26;14.56;79.33
65584;DHT22;73032;43.592;1.458;2024-03-22T05:30:52;14.55;80.11
65584;DHT22;73032;43.592;1.458;2024-03-22T05:33:17;14.53;79.26
65584;DHT22;73032;43.592;1.458;2024-03-22T05:35:43;14.53;79.70
65584;DHT22;73032;43.592;1.458;2024-03-22T05:38:09;14.50;79.76
65584;DHT22;73032;43.592;1.458;2024-03-22T05:40:37;14.49;79.55
65584;DHT22;73032;43.592;1.458;2024-03-22T05:43:06;14.46;79.65
65584;DHT22;73032;43.592;1.458;2024-03-22T05:45:31;14.50;79.53
65584;DHT22;73032;43.592;1.458;2024-03-22T05:47:57;14.39;79.32
65584;DHT22;73032;43.592;1.458;2024-03-22T05:50:23;14.44;79.19
65584;DHT22;73032;43.592;1.458;2024-03-22T05:52:48;14.44;79.63
65584;DHT22;73032;43.592;1.458;2024-03-22T05:55:14;14.47;79.13
65584;DHT22;73032;43.592;1.458;2024-03-22T05:57:40;14.47;79.39
65584;DHT22;73032;43.592;1.458;2024-03-22T06:00:06;14.47;79.45
65584;DHT22;73032;43.592;1.458;2024-03-22T06:02:35;14.37;79.05
65584;DHT22;73032;43.592;1.458;2024-03-22T06:05:00;14.42;79.71
65584;DHT22;73032;43.592;1.458;2024-03-22T06:07:26;14.43;79.49
65584;DHT22;73032;43.592;1.458;2024-03-22T06:09:52;14.43;79.51
65584;DHT22;73032;43.592;1.458;2024-03-22T06:12:18;14.40;79.48
65584;DHT22;73032;43.592;1.458;2024-03-22T06:14:44;14.40;79.76
65584;DHT22;73032;43.592;1.458;2024-03-22T06:17:10;14.44;80.28
65584;DHT22;73032;43.592;1.458;2024-03-22T06:19:38;14.49;79.79
65584;DHT22;73032;43.592;1.458;2024-03-22T06:22:03;14.49;80.14
65584;DHT22;73032;43.592;1.458;2024-03-22T06:24:29;14.50;80.19
65584;DHT22;73032;43.592;1.458;2024-03-22T06:26:55;14.49;80.00
65584;DHT22;73032;43.592;1.458;2024-03-22T06:29:21;14.50;79.81
65584;DHT22;73032;43.592;1.458;2024-03-22T06:31:47;14.55;80.45
65584;DHT22;73032;43.592;1.458;2024-03-22T06:34:13;14.60;79.98
65584;DHT22;73032;43.592;1.458;2024-03-22T06:36:39;14.64;80.04
65584;DHT22;73032;43.592;1.458;2024-03-22T06:39:04;14.62;79.85
65584;DHT22;73032;43.592;1.458;2024-03-22T06:41:33;14.66;80.08
65584;DHT22;73032;43.592;1.458;2024-03-22T06:43:59;14.72;80.00
65584;DHT22;73032;43.592;1.458;2024-03-22T06:46:24;14.62;80.18
65584;DHT22;73032;43.592;1.458;2024-03-22T06:48:52;14.70;80.09
65584;DHT22;73032;43.592;1.458;2024-03-22T06:51:18;14.76;80.63
65584;DHT22;73032;43.592;1.458;2024-03-22T06:53:44;14.80;80.06
65584;DHT22;73032;43.592;1.458;2024-03-22T06:56:11;14.84;80.21
65584;DHT22;73032;43.592;1.458;2024-03-22T06:58:39;14.88;80.26
65584;DHT22;73032;43.592;1.458;2024-03-22T07:01:05;14.87;80.25
65584;DHT22;73032;43.592;1.458;2024-03-22T07:03:31;14.90;80.12
65584;DHT22;73032;43.592;1.458;2024-03-22T07:05:57;14.97;80.36
65584;DHT22;73032;43.592;1.458;2024-03-22T07:08:26;15.04;79.83
65584;DHT22;73032;43.592;1.458;2024-03-22T07:10:52;15.10;79.75
65584;DHT22;73032;43.592;1.458;2024-03-22T07:13:20;15.12;79.95
65584;DHT22;73032;43.592;1.458;2024-03-22T07:15:49;15.18;79.00
65584;DHT22;73032;43.592;1.458;2024-03-22T07:18:15;15.18;79.10
65584;DHT22;73032;43.592;1.458;2024-03-22T07:20:41;15.21;78.78
65584;DHT22;73032;43.592;1.458;2024-03-22T07:23:08;15.20;78.55
65584;DHT22;73032;43.592;1.458;2024-03-22T07:25:34;15.14;78.68
65584;DHT22;73032;43.592;1.458;2024-03-22T07:27:59;15.21;78.51
65584;DHT22;73032;43.592;1.458;2024-03-22T07:30:25;15.24;78.47
65584;DHT22;73032;43.592;1.458;2024-03-22T07:32:51;15.30;78.58
65584;DHT22;73032;43.592;1.458;2024-03-22T07:35:16;15.34;78.78
65584;DHT22;73032;43.592;1.458;2024-03-22T07:37:42;15.38;78.49
65584;DHT22;73032;43.592;1.458;2024-03-22T07:40:08;15.44;79.20
65584;DHT22;73032;43.592;1.458;2024-03-22T07:42:34;15.54;79.78
65584;DHT22;73032;43.592;1.458;2024-03-22T07:44:59;15.62;79.50
65584;DHT22;73032;43.592;1.458;2024-03-22T07:47:25;15.59;79.12
65584;DHT22;73032;43.592;1.458;2024-03-22T07:49:51;15.66;79.10
65584;DHT22;73032;43.592;1.458;2024-03-22T07:52:16;15.75;78.74
65584;DHT22;73032;43.592;1.458;2024-03-22T07:54:42;15.89;79.16
65584;DHT22;73032;43.592;1.458;2024-03-22T07:57:08;15.99;78.79
65584;DHT22;73032;43.592;1.458;2024-03-22T07:59:36;16.05;79.03
65584;DHT22;73032;43.592;1.458;2024-03-22T08:02:02;16.16;78.68
65584;DHT22;73032;43.592;1.458;2024-03-22T08:04:29;16.13;76.88
65584;DHT22;73032;43.592;1.458;2024-03-22T08:06:55;16.20;77.09
65584;DHT22;73032;43.592;1.458;2024-03-22T08:09:21;16.26;78.31
65584;DHT22;73032;43.592;1.458;2024-03-22T08:11:47;16.03;77.66
65584;DHT22;73032;43.592;1.458;2024-03-22T08:14:13;16.17;77.73
65584;DHT22;73032;43.592;1.458;2024-03-22T08:16:39;16.33;78.32
65584;DHT22;73032;43.592;1.458;2024-03-22T08:19:05;16.42;77.19
65584;DHT22;73032;43.592;1.458;2024-03-22T08:21:30;16.47;77.57
65584;DHT22;73032;43.592;1.458;2024-03-22T08:23:56;16.63;77.27
65584;DHT22;73032;43.592;1.458;2024-03-22T08:26:22;16.76;77.32
65584;DHT22;73032;43.592;1.458;2024-03-22T08:28:48;16.88;76.59
65584;DHT22;73032;43.592;1.458;2024-03-22T08:31:14;17.00;76.23
65584;DHT22;73032;43.592;1.458;2024-03-22T08:33:39;17.08;75.65
65584;DHT22;73032;43.592;1.458;2024-03-22T08:36:06;17.14;75.42
65584;DHT22;73032;43.592;1.458;2024-03-22T08:38:31;17.21;76.11
65584;DHT22;73032;43.592;1.458;2024-03-22T08:40:57;17.31;75.23
65584;DHT22;73032;43.592;1.458;2024-03-22T08:43:23;17.42;75.16
65584;DHT22;73032;43.592;1.458;2024-03-22T08:45:51;17.62;74.87
65584;DHT22;73032;43.592;1.458;2024-03-22T08:48:17;17.78;73.67
65584;DHT22;73032;43.592;1.458;2024-03-22T08:50:44;17.86;73.97
65584;DHT22;73032;43.592;1.458;2024-03-22T08:53:09;17.90;74.14
65584;DHT22;73032;43.592;1.458;2024-03-22T08:55:38;18.06;73.97
65584;DHT22;73032;43.592;1.458;2024-03-22T08:58:04;18.20;73.43
65584;DHT22;73032;43.592;1.458;2024-03-22T09:00:30;18.34;73.12
65584;DHT22;73032;43.592;1.458;2024-03-22T09:02:55;18.40;72.21
65584;DHT22;73032;43.592;1.458;2024-03-22T09:05:22;18.56;71.39
65584;DHT22;73032;43.592;1.458;2024-03-22T09:07:47;18.67;72.24
65584;DHT22;73032;43.592;1.458;2024-03-22T09:10:14;18.72;71.87
65584;DHT22;73032;43.592;1.458;2024-03-22T09:12:39;18.80;70.93
65584;DHT22;73032;43.592;1.458;2024-03-22T09:15:06;19.05;71.13
65584;DHT22;73032;43.592;1.458;2024-03-22T09:17:32;19.24;69.92
65584;DHT22;73032;43.592;1.458;2024-03-22T09:19:58;19.32;69.91
65584;DHT22;73032;43.592;1.458;2024-03-22T09:22:24;19.42;69.52
65584;DHT22;73032;43.592;1.458;2024-03-22T09:24:50;19.61;69.59
65584;DHT22;73032;43.592;1.458;2024-03-22T09:27:15;19.83;68.11
65584;DHT22;73032;43.592;1.458;2024-03-22T09:29:41;20.06;69.14
65584;DHT22;73032;43.592;1.458;2024-03-22T09:32:09;20.12;67.69
65584;DHT22;73032;43.592;1.458;2024-03-22T09:34:35;20.10;67.21
65584;DHT22;73032;43.592;1.458;2024-03-22T09:37:00;20.34;68.32
65584;DHT22;73032;43.592;1.458;2024-03-22T09:39:29;20.43;66.21
65584;DHT22;73032;43.592;1.458;2024-03-22T09:41:57;20.53;66.19
65584;DHT22;73032;43.592;1.458;2024-03-22T09:44:27;20.64;66.62
65584;DHT22;73032;43.592;1.458;2024-03-22T09:46:53;20.83;66.92
65584;DHT22;73032;43.592;1.458;2024-03-22T09:49:19;20.92;65.46
65584;DHT22;73032;43.592;1.458;2024-03-22T09:51:45;21.12;65.52
65584;DHT22;73032;43.592;1.458;2024-03-22T09:54:12;21.12;64.60
65584;DHT22;73032;43.592;1.458;2024-03-22T09:56:38;21.01;64.86
65584;DHT22;73032;43.592;1.458;2024-03-22T09:59:05;20.99;64.78
65584;DHT22;73032;43.592;1.458;2024-03-22T10:01:31;21.18;65.28
65584;DHT22;73032;43.592;1.458;2024-03-22T10:03:57;21.01;64.59
65584;DHT22;73032;43.592;1.458;2024-03-22T10:06:23;20.88;65.12
65584;DHT22;73032;43.592;1.458;2024-03-22T10:08:49;20.84;65.37
65584;DHT22;73032;43.592;1.458;2024-03-22T10:11:14;20.84;65.14
65584;DHT22;73032;43.592;1.458;2024-03-22T10:13:40;20.90;65.03
65584;DHT22;73032;43.592;1.458;2024-03-22T10:16:06;20.98;64.05
65584;DHT22;73032;43.592;1.458;2024-03-22T10:18:33;21.18;64.85
65584;DHT22;73032;43.592;1.458;2024-03-22T10:21:03;21.38;65.27
65584;DHT22;73032;43.592;1.458;2024-03-22T10:23:29;21.45;63.23
65584;DHT22;73032;43.592;1.458;2024-03-22T10:25:59;21.56;62.73
65584;DHT22;73032;43.592;1.458;2024-03-22T10:28:28;21.65;62.03
65584;DHT22;73032;43.592;1.458;2024-03-22T10:30:54;21.56;62.82
65584;DHT22;73032;43.592;1.458;2024-03-22T10:33:21;21.55;63.21
65584;DHT22;73032;43.592;1.458;2024-03-22T10:35:53;21.53;62.89
65584;DHT22;73032;43.592;1.458;2024-03-22T10:38:20;21.52;62.87
65584;DHT22;73032;43.592;1.458;2024-03-22T10:40:47;21.39;63.69
65584;DHT22;73032;43.592;1.458;2024-03-22T10:43:14;21.56;63.61
65584;DHT22;73032;43.592;1.458;2024-03-22T10:45:40;21.82;64.12
65584;DHT22;73032;43.592;1.458;2024-03-22T10:48:10;22.16;62.10
65584;DHT22;73032;43.592;1.458;2024-03-22T10:50:40;22.50;60.80
65584;DHT22;73032;43.592;1.458;2024-03-22T10:53:21;22.83;61.55
65584;DHT22;73032;43.592;1.458;2024-03-22T10:55:50;22.90;59.35
65584;DHT22;73032;43.592;1.458;2024-03-22T10:58:17;22.98;59.62
65584;DHT22;73032;43.592;1.458;2024-03-22T11:00:43;23.41;58.46
65584;DHT22;73032;43.592;1.458;2024-03-22T11:03:09;23.76;58.83
65584;DHT22;73032;43.592;1.458;2024-03-22T11:05:47;24.23;56.11
65584;DHT22;73032;43.592;1.458;2024-03-22T11:08:23;24.60;53.83
65584;DHT22;73032;43.592;1.458;2024-03-22T11:10:49;24.89;54.14
65584;DHT22;73032;43.592;1.458;2024-03-22T11:13:16;25.07;54.17
65584;DHT22;73032;43.592;1.458;2024-03-22T11:15:42;25.18;53.71
65584;DHT22;73032;43.592;1.458;2024-03-22T11:18:09;25.19;53.19
65584;DHT22;73032;43.592;1.458;2024-03-22T11:20:37;25.35;52.60
65584;DHT22;73032;43.592;1.458;2024-03-22T11:23:06;25.49;53.02
65584;DHT22;73032;43.592;1.458;2024-03-22T11:25:33;25.73;52.54
65584;DHT22;73032;43.592;1.458;2024-03-22T11:27:59;25.90;50.65
65584;DHT22;73032;43.592;1.458;2024-03-22T11:30:28;26.07;50.07
65584;DHT22;73032;43.592;1.458;2024-03-22T11:32:55;26.38;49.27
65584;DHT22;73032;43.592;1.458;2024-03-22T11:35:21;26.67;49.86
65584;DHT22;73032;43.592;1.458;2024-03-22T11:37:47;26.61;48.59
65584;DHT22;73032;43.592;1.458;2024-03-22T11:40:17;26.88;48.48
65584;DHT22;73032;43.592;1.458;2024-03-22T11:42:47;27.08;48.07
65584;DHT22;73032;43.592;1.458;2024-03-22T11:45:18;27.15;47.04
65584;DHT22;73032;43.592;1.458;2024-03-22T11:47:45;27.26;48.44
65584;DHT22;73032;43.592;1.458;2024-03-22T11:50:14;27.35;46.62
65584;DHT22;73032;43.592;1.458;2024-03-22T11:52:41;27.38;46.46
65584;DHT22;73032;43.592;1.458;2024-03-22T11:55:07;27.65;46.54
65584;DHT22;73032;43.592;1.458;2024-03-22T11:57:33;27.89;45.45
65584;DHT22;73032;43.592;1.458;2024-03-22T12:00:00;28.01;45.43
65584;DHT22;73032;43.592;1.458;2024-03-22T12:02:26;28.20;44.62
65584;DHT22;73032;43.592;1.458;2024-03-22T12:04:52;28.61;45.03
65584;DHT22;73032;43.592;1.458;2024-03-22T12:07:18;28.78;42.76
65584;DHT22;73032;43.592;1.458;2024-03-22T12:09:44;28.90;43.61
65584;DHT22;73032;43.592;1.458;2024-03-22T12:12:12;28.99;44.12
65584;DHT22;73032;43.592;1.458;2024-03-22T12:14:38;28.96;43.69
65584;DHT22;73032;43.592;1.458;2024-03-22T12:17:06;29.01;44.09
65584;DHT22;73032;43.592;1.458;2024-03-22T12:19:32;28.78;42.10
65584;DHT22;73032;43.592;1.458;2024-03-22T12:21:58;29.01;42.72
65584;DHT22;73032;43.592;1.458;2024-03-22T12:24:24;29.26;40.88
65584;DHT22;73032;43.592;1.458;2024-03-22T12:26:50;29.45;40.83
65584;DHT22;73032;43.592;1.458;2024-03-22T12:29:16;29.45;38.93
65584;DHT22;73032;43.592;1.458;2024-03-22T12:31:42;29.29;38.34
65584;DHT22;73032;43.592;1.458;2024-03-22T12:34:08;29.40;39.41
65584;DHT22;73032;43.592;1.458;2024-03-22T12:36:34;29.70;40.89
65584;DHT22;73032;43.592;1.458;2024-03-22T12:39:00;29.84;39.13
65584;DHT22;73032;43.592;1.458;2024-03-22T12:41:27;29.91;38.38
65584;DHT22;73032;43.592;1.458;2024-03-22T12:43:55;30.10;38.58
65584;DHT22;73032;43.592;1.458;2024-03-22T12:46:21;30.30;39.21
65584;DHT22;73032;43.592;1.458;2024-03-22T12:48:47;30.43;39.26
65584;DHT22;73032;43.592;1.458;2024-03-22T12:51:13;30.69;38.33
65584;DHT22;73032;43.592;1.458;2024-03-22T12:53:40;30.74;36.23
65584;DHT22;73032;43.592;1.458;2024-03-22T12:56:06;30.61;36.29
65584;DHT22;73032;43.592;1.458;2024-03-22T12:58:32;30.77;35.00
65584;DHT22;73032;43.592;1.458;2024-03-22T13:00:58;30.55;35.40
65584;DHT22;73032;43.592;1.458;2024-03-22T13:03:26;30.67;37.50
65584;DHT22;73032;43.592;1.458;2024-03-22T13:05:52;31.08;36.21
65584;DHT22;73032;43.592;1.458;2024-03-22T13:08:19;31.40;35.05
65584;DHT22;73032;43.592;1.458;2024-03-22T13:10:48;31.56;34.92
65584;DHT22;73032;43.592;1.458;2024-03-22T13:13:14;31.52;33.79
65584;DHT22;73032;43.592;1.458;2024-03-22T13:15:42;31.65;35.74
65584;DHT22;73032;43.592;1.458;2024-03-22T13:18:08;31.66;34.06
65584;DHT22;73032;43.592;1.458;2024-03-22T13:20:37;31.90;34.53
65584;DHT22;73032;43.592;1.458;2024-03-22T13:23:03;32.09;34.49
65584;DHT22;73032;43.592;1.458;2024-03-22T13:25:29;32.33;34.40
65584;DHT22;73032;43.592;1.458;2024-03-22T13:27:55;32.00;33.17
65584;DHT22;73032;43.592;1.458;2024-03-22T13:30:20;32.28;32.50
65584;DHT22;73032;43.592;1.458;2024-03-22T13:32:47;32.17;32.42
65584;DHT22;73032;43.592;1.458;2024-03-22T13:35:13;32.30;33.66
65584;DHT22;73032;43.592;1.458;2024-03-22T13:37:40;32.24;32.62
65584;DHT22;73032;43.592;1.458;2024-03-22T13:40:06;32.25;32.75
65584;DHT22;73032;43.592;1.458;2024-03-22T13:42:32;32.25;32.75
65584;DHT22;73032;43.592;1.458;2024-03-22T13:44:58;32.43;32.26
65584;DHT22;73032;43.592;1.458;2024-03-22T13:47:25;32.51;30.89
65584;DHT22;73032;43.592;1.458;2024-03-22T13:49:52;32.60;31.51
65584;DHT22;73032;43.592;1.458;2024-03-22T13:52:17;32.71;31.99
65584;DHT22;73032;43.592;1.458;2024-03-22T13:54:43;32.60;31.48
65584;DHT22;73032;43.592;1.458;2024-03-22T13:57:09;32.74;31.26
65584;DHT22;73032;43.592;1.458;2024-03-22T13:59:35;32.70;30.05
65584;DHT22;73032;43.592;1.458;2024-03-22T14:02:01;32.54;32.23
65584;DHT22;73032;43.592;1.458;2024-03-22T14:04:27;32.24;31.62
65584;DHT22;73032;43.592;1.458;2024-03-22T14:06:54;32.38;29.82
65584;DHT22;73032;43.592;1.458;2024-03-22T14:09:20;32.41;30.85
65584;DHT22;73032;43.592;1.458;2024-03-22T14:11:46;32.61;30.52
65584;DHT22;73032;43.592;1.458;2024-03-22T14:14:14;32.71;30.33
65584;DHT22;73032;43.592;1.458;2024-03-22T14:16:40;32.82;31.64
65584;DHT22;73032;43.592;1.458;2024-03-22T14:19:09;32.81;30.70
65584;DHT22;73032;43.592;1.458;2024-03-22T14:21:36;32.81;30.03
65584;DHT22;73032;43.592;1.458;2024-03-22T14:24:01;32.79;30.61
65584;DHT22;73032;43.592;1.458;2024-03-22T14:26:28;32.81;27.60
65584;DHT22;73032;43.592;1.458;2024-03-22T14:28:54;32.92;27.68
65584;DHT22;73032;43.592;1.458;2024-03-22T14:31:19;32.97;26.87
65584;DHT22;73032;43.592;1.458;2024-03-22T14:33:45;32.87;28.21
65584;DHT22;73032;43.592;1.458;2024-03-22T14:36:11;32.06;27.72
65584;DHT22;73032;43.592;1.458;2024-03-22T14:38:38;32.23;30.10
65584;DHT22;73032;43.592;1.458;2024-03-22T14:41:04;32.35;28.01
65584;DHT22;73032;43.592;1.458;2024-03-22T14:43:30;32.40;28.31
65584;DHT22;73032;43.592;1.458;2024-03-22T14:46:01;32.35;28.59
65584;DHT22;73032;43.592;1.458;2024-03-22T14:48:28;32.45;29.65
65584;DHT22;73032;43.592;1.458;2024-03-22T14:50:54;32.41;30.34
65584;DHT22;73032;43.592;1.458;2024-03-22T14:53:20;32.35;30.04
65584;DHT22;73032;43.592;1.458;2024-03-22T14:55:57;32.28;28.99
65584;DHT22;73032;43.592;1.458;2024-03-22T14:58:30;32.21;28.87
65584;DHT22;73032;43.592;1.458;2024-03-22T15:01:01;32.00;27.63
65584;DHT22;73032;43.592;1.458;2024-03-22T15:03:27;31.54;28.74
65584;DHT22;73032;43.592;1.458;2024-03-22T15:05:55;31.40;27.40
65584;DHT22;73032;43.592;1.458;2024-03-22T15:08:23;31.52;29.06
65584;DHT22;73032;43.592;1.458;2024-03-22T15:10:49;31.65;28.33
65584;DHT22;73032;43.592;1.458;2024-03-22T15:13:16;31.65;29.62
65584;DHT22;73032;43.592;1.458;2024-03-22T15:15:43;31.79;29.53
65584;DHT22;73032;43.592;1.458;2024-03-22T15:18:09;31.76;29.55
65584;DHT22;73032;43.592;1.458;2024-03-22T15:20:38;31.66;30.24
65584;DHT22;73032;43.592;1.458;2024-03-22T15:23:04;31.56;31.53
65584;DHT22;73032;43.592;1.458;2024-03-22T15:25:30;31.52;31.42